• Join FlightAware (Why Join?)
  • Login
  • US Flag 
12:18PM EDT


 

Airport Tracker/Info


-or-


 

Live Flight TrackerFlight Track Log ✈ SWA1435 ✈ 17-Apr-2013 ✈ KDAL - KSTL

Flight Track Log - Related Links

Times and Time Zones

All times are in EDT time to prevent confusion due to time zone crossing. See the SWA1435 flight status page for this flight to view local times or setup timezone preferences in your user account.

Time Position Orientation Groundspeed Altitude Reporting Facility
EDT Latitude Longitude Course Direction KTS MPH feet Rate Location/Type
07:08AM 32.8000 -96.8000 25° Northeast 187 215 2,800  Level Dallas / Fort Worth TRACON
07:09AM 32.7667 -96.7333 121° Southeast 218 251 5,700 2,340 Climbing Dallas / Fort Worth TRACON
07:11AM 32.9067 -96.7083 North 308 354 10,100 2,040 Climbing Fort Worth Center
07:12AM 32.9922 -96.7272 350° North 333 383 11,700 2,220 Climbing Fort Worth Center
07:13AM 33.3354 -96.5840 25° Northeast  Level FlightAware Approximate
07:13AM 33.0986 -96.6894 17° North 350 403 14,600  Level Fort Worth Center
07:14AM 33.1775 -96.6267 34° Northeast 363 418 17,000 2,340 Climbing Fort Worth Center
07:15AM 33.2689 -96.5589 32° Northeast 384 442 19,300 2,400 Climbing Fort Worth Center
07:16AM 33.3747 -96.4806 32° Northeast 394 453 21,800 2,100 Climbing Fort Worth Center
07:17AM 33.4681 -96.4100 32° Northeast 394 453 23,500 1,560 Climbing Fort Worth Center
07:18AM 33.5594 -96.3417 32° Northeast 414 476 25,000 1,500 Climbing Fort Worth Center
07:19AM 33.6611 -96.2656 32° Northeast 421 484 26,600 1,500 Climbing Fort Worth Center
07:20AM 33.7667 -96.1867 32° Northeast 434 499 28,100 1,320 Climbing Fort Worth Center
07:21AM 33.8744 -96.1050 32° Northeast 452 520 29,300 1,200 Climbing Fort Worth Center
07:22AM 33.9842 -96.0233 32° Northeast 458 527 30,600 1,320 Climbing Fort Worth Center
07:23AM 34.1019 -95.9311 33° Northeast 458 527 32,000 1,500 Climbing Fort Worth Center
07:24AM 34.2136 -95.8464 32° Northeast 453 521 33,600 1,320 Climbing Fort Worth Center
07:25AM 34.3233 -95.7664 31° Northeast 453 521 34,700 1,200 Climbing Fort Worth Center
07:26AM 34.4328 -95.6786 33° Northeast 453 521 36,100 1,140 Climbing Fort Worth Center
07:27AM 34.5381 -95.5983 32° Northeast 453 521 37,000 240 Climbing Fort Worth Center
07:29AM 34.7472 -95.4397 32° Northeast 448 516 37,000  Level Memphis Center
07:30AM 34.8550 -95.3550 33° Northeast 448 516 37,000  Level Memphis Center
07:31AM 34.9628 -95.2728 32° Northeast 453 521 37,000  Level Memphis Center
07:32AM 35.0703 -95.1853 34° Northeast 453 521 37,000  Level Memphis Center
07:33AM 35.1800 -95.1000 32° Northeast 458 527 37,000  Level Memphis Center
07:34AM 35.2897 -95.0147 32° Northeast 463 533 37,000  Level Memphis Center
07:35AM 35.3992 -94.9292 32° Northeast 463 533 37,000  Level Memphis Center
07:36AM 35.5086 -94.8433 33° Northeast 463 533 37,000  Level Memphis Center
07:37AM 35.6161 -94.7547 34° Northeast 468 539 37,000  Level Memphis Center
07:38AM 35.7256 -94.6683 33° Northeast 468 539 37,000  Level Memphis Center
07:39AM 35.8325 -94.5842 33° Northeast 468 539 37,000  Level Memphis Center
07:40AM 35.9419 -94.4975 33° Northeast 468 539 37,000  Level Memphis Center
07:41AM 36.0489 -94.4106 33° Northeast 468 539 37,000  Level Memphis Center
07:42AM 36.1539 -94.3233 34° Northeast 468 539 37,000  Level Memphis Center
07:44AM 36.3908 -94.1319 33° Northeast 458 527 37,000  Level Kansas City Center
07:45AM 36.4969 -94.0458 33° Northeast 456 525 37,000  Level Kansas City Center
07:46AM 36.6028 -93.9597 33° Northeast 456 525 37,000  Level Kansas City Center
07:47AM 36.7092 -93.8722 33° Northeast 456 525 37,000  Level Kansas City Center
07:48AM 36.8147 -93.7853 33° Northeast 455 524 37,000  Level Kansas City Center
07:49AM 36.9322 -93.6883 33° Northeast 451 519 37,000  Level Kansas City Center
07:50AM 37.0367 -93.6011 34° Northeast 449 517 37,000  Level Kansas City Center
07:51AM 37.1422 -93.5128 34° Northeast 452 520 37,000  Level Kansas City Center
07:52AM 37.2469 -93.4267 33° Northeast 450 518 37,000  Level Kansas City Center
07:53AM 37.3517 -93.3392 34° Northeast 449 517 37,000  Level Kansas City Center
07:54AM 37.4461 -93.2328 42° Northeast 454 522 37,000  Level Kansas City Center
07:55AM 37.5378 -93.1236 43° Northeast 452 520 37,000  Level Kansas City Center
07:56AM 37.6311 -93.0164 42° Northeast 451 519 37,000  Level Kansas City Center
07:57AM 37.7236 -92.9064 43° Northeast 455 524 37,000  Level Kansas City Center
07:58AM 37.8169 -92.7969 43° Northeast 454 522 37,000  Level Kansas City Center
07:59AM 37.9158 -92.6722 45° Northeast 458 527 37,000 -480 Level Kansas City Center
08:00AM 37.9881 -92.5381 56° Northeast 462 532 36,100 -1,920 Descending Kansas City Center
08:01AM 38.0625 -92.4042 55° Northeast 468 539 33,200 -2,940 Descending Kansas City Center
08:02AM 38.1378 -92.2633 56° Northeast 480 552 30,200 -2,820 Descending Kansas City Center
08:03AM 38.2108 -92.1244 56° Northeast 477 549 27,600 -2,460 Descending Kansas City Center
08:05AM 38.2828 -91.9889 56° Northeast 469 540 25,300 -2,220 Descending Kansas City Center
08:06AM 38.3514 -91.8589 56° Northeast 455 524 23,100 -2,220 Descending Kansas City Center
08:07AM 38.4175 -91.7336 56° Northeast 439 505 20,900 -2,100 Descending Kansas City Center
08:08AM 38.4814 -91.6117 56° Northeast 421 484 18,800 -2,040 Descending Kansas City Center
08:09AM 38.5450 -91.4886 57° Northeast 415 478 16,700 -2,220 Descending Kansas City Center
08:10AM 38.6072 -91.3692 56° Northeast 406 467 14,400 -2,460 Descending Kansas City Center
08:10AM 38.6322 -91.2661 73° East 395 455 13,500 -2,580 Descending FAA TRACON SMA TRACON (SMA)
08:10AM 38.6550 -91.2217 57° Northeast 389 448 12,700 -2,280 Descending FAA TRACON SMA TRACON (SMA)
08:11AM 38.6728 -91.1872 57° Northeast 385 443 12,000 -1,980 Descending FAA TRACON SMA TRACON (SMA)
08:11AM 38.6878 -91.1503 63° Northeast 381 438 11,400 -2,100 Descending FAA TRACON SMA TRACON (SMA)
08:11AM 38.6931 -91.1011 82° East 368 423 10,600 -1,800 Descending FAA TRACON SMA TRACON (SMA)
08:12AM 38.6939 -91.0622 88° East 358 412 10,200 -900 Descending FAA TRACON SMA TRACON (SMA)
08:12AM 38.7022 -91.0258 74° East 349 402 10,000 -900 Descending FAA TRACON SMA TRACON (SMA)
08:12AM 38.7194 -90.9864 61° Northeast 335 386 9,600 -1,380 Descending FAA TRACON SMA TRACON (SMA)
08:13AM 38.7331 -90.9553 61° Northeast 327 376 9,100 -1,500 Descending FAA TRACON SMA TRACON (SMA)
08:13AM 38.7469 -90.9247 60° Northeast 325 374 8,600 -1,200 Descending FAA TRACON SMA TRACON (SMA)
08:13AM 38.7636 -90.8864 61° Northeast 323 372 8,300 -900 Descending FAA TRACON SMA TRACON (SMA)
08:14AM 38.7764 -90.8578 60° Northeast 310 357 8,000 -780 Descending FAA TRACON SMA TRACON (SMA)
08:14AM 38.7894 -90.8303 59° Northeast 299 344 7,800 -780 Descending FAA TRACON SMA TRACON (SMA)
08:14AM 38.8036 -90.7972 61° Northeast 280 322 7,500 -600 Descending FAA TRACON SMA TRACON (SMA)
08:15AM 38.8150 -90.7725 59° Northeast 268 308 7,400 -780 Descending FAA TRACON SMA TRACON (SMA)
08:15AM 38.8261 -90.7481 60° Northeast 261 300 7,000 -1,200 Descending FAA TRACON SMA TRACON (SMA)
08:15AM 38.8403 -90.7175 59° Northeast 257 296 6,600 -1,200 Descending FAA TRACON SMA TRACON (SMA)
08:16AM 38.8517 -90.6931 59° Northeast 259 298 6,200 -900 Descending FAA TRACON SMA TRACON (SMA)
08:16AM 38.8625 -90.6689 60° Northeast 257 296 6,000 -480 Descending FAA TRACON SMA TRACON (SMA)
08:16AM 38.8744 -90.6411 61° Northeast 242 278 5,900 -480 Descending FAA TRACON SMA TRACON (SMA)
08:17AM 38.8769 -90.6181 82° East 228 262 5,700 -1,080 Descending FAA TRACON SMA TRACON (SMA)
08:17AM 38.8756 -90.5953 94° East 210 242 5,200 -1,680 Descending FAA TRACON SMA TRACON (SMA)
08:17AM 38.8689 -90.5689 108° East 208 239 4,600 -1,680 Descending FAA TRACON SMA TRACON (SMA)
08:18AM 38.8597 -90.5492 121° Southeast 208 239 4,100 -1,380 Descending FAA TRACON SMA TRACON (SMA)
08:18AM 38.8503 -90.5292 121° Southeast 210 242 3,700 -1,080 Descending FAA TRACON SMA TRACON (SMA)
08:18AM 38.8389 -90.5053 121° Southeast 207 238 3,400 -780 Descending FAA TRACON SMA TRACON (SMA)
08:19AM 38.8297 -90.4878 124° Southeast 196 226 3,200 -780 Descending FAA TRACON SMA TRACON (SMA)
08:19AM 38.8211 -90.4703 122° Southeast 189 217 2,900 -1,080 Descending FAA TRACON SMA TRACON (SMA)
08:19AM 38.8106 -90.4489 122° Southeast 186 214 2,500 -900 Descending FAA TRACON SMA TRACON (SMA)
08:20AM 38.8025 -90.4325 122° Southeast 180 207 2,300 -300 Descending FAA TRACON SMA TRACON (SMA)
08:20AM 38.7944 -90.4158 122° Southeast 175 201 2,300 -600 Level FAA TRACON SMA TRACON (SMA)
08:20AM 38.7850 -90.3969 123° Southeast 167 192 1,900 -900 Descending FAA TRACON SMA TRACON (SMA)
08:21AM 38.7781 -90.3831 123° Southeast 153 176 1,700 -600 Descending FAA TRACON SMA TRACON (SMA)
08:21AM 38.7722 -90.3714 123° Southeast 133 153 1,500 -780 Descending FAA TRACON SMA TRACON (SMA)
08:21AM 38.7653 -90.3572 122° Southeast 121 139 1,200 -780 Descending FAA TRACON SMA TRACON (SMA)
08:22AM 38.7594 -90.3458 123° Southeast 122 140 1,000 -600 Descending FAA TRACON SMA TRACON (SMA)
08:22AM 38.7539 -90.3342 121° Southeast 127 146 800 -600 Descending FAA TRACON SMA TRACON (SMA)
08:22AM 38.7494 -90.3247 121° Southeast 131 151 600 -600 Descending FAA TRACON SMA TRACON (SMA)